createdAt,value
2023-05-09T00:00:13.706Z,15.30
2023-05-09T00:01:47.175Z,15.45
2023-05-09T00:03:18.878Z,15.07
2023-05-09T00:04:51.582Z,16.45
2023-05-09T00:06:23.293Z,17.48
2023-05-09T00:07:54.921Z,16.02
2023-05-09T00:09:26.597Z,16.95
2023-05-09T00:10:58.259Z,17.00
2023-05-09T00:12:29.912Z,14.23
2023-05-09T00:14:02.480Z,14.52
2023-05-09T00:15:34.175Z,14.45
2023-05-09T00:17:05.780Z,13.73
2023-05-09T00:18:37.944Z,14.85
2023-05-09T00:20:12.316Z,15.60
2023-05-09T00:21:44.350Z,14.30
2023-05-09T00:23:16.748Z,14.80
2023-05-09T00:24:48.943Z,14.23
2023-05-09T00:26:21.750Z,15.13
2023-05-09T00:27:53.405Z,14.82
2023-05-09T00:29:24.988Z,13.77
2023-05-09T00:30:57.105Z,13.65
2023-05-09T00:32:29.253Z,13.68
2023-05-09T00:34:01.001Z,15.18
2023-05-09T00:35:32.979Z,14.40
2023-05-09T00:37:04.594Z,15.48
2023-05-09T00:38:36.344Z,13.32
2023-05-09T00:40:09.232Z,14.02
2023-05-09T00:41:41.056Z,13.23
2023-05-09T00:43:12.734Z,12.63
2023-05-09T00:44:44.320Z,13.25
2023-05-09T00:46:15.946Z,13.73
2023-05-09T00:47:47.897Z,14.00
2023-05-09T00:49:20.057Z,12.43
2023-05-09T00:50:53.070Z,14.32
2023-05-09T00:52:26.022Z,14.00
2023-05-09T00:53:58.513Z,13.65
2023-05-09T00:55:30.262Z,13.13
2023-05-09T00:57:01.814Z,14.15
2023-05-09T00:58:33.412Z,14.30
2023-05-09T01:00:06.204Z,13.35
2023-05-09T01:01:37.889Z,12.98
2023-05-09T01:03:10.103Z,12.82
2023-05-09T01:04:42.182Z,13.35
2023-05-09T01:06:16.921Z,12.48
2023-05-09T01:08:10.467Z,13.25
2023-05-09T01:10:01.714Z,14.13
2023-05-09T01:11:42.547Z,13.63
2023-05-09T01:13:24.211Z,12.60
2023-05-09T01:15:17.309Z,13.18
2023-05-09T01:17:01.881Z,14.57
2023-05-09T01:19:12.379Z,13.63
2023-05-09T01:20:49.876Z,12.68
2023-05-09T01:22:26.780Z,12.57
2023-05-09T01:24:22.686Z,12.43
2023-05-09T01:26:01.967Z,13.07
2023-05-09T01:27:48.536Z,12.25
2023-05-09T01:29:44.667Z,14.88
2023-05-09T01:31:17.364Z,12.05
2023-05-09T01:32:52.151Z,14.68
2023-05-09T01:34:28.599Z,13.23
2023-05-09T01:36:09.801Z,14.98
2023-05-09T01:37:44.650Z,13.48
2023-05-09T01:39:18.068Z,13.55
2023-05-09T01:40:54.392Z,13.98
2023-05-09T01:42:30.971Z,13.40
2023-05-09T01:44:05.201Z,14.85
2023-05-09T01:45:39.002Z,13.32
2023-05-09T01:47:11.744Z,12.98
2023-05-09T01:48:45.057Z,14.02
2023-05-09T01:50:18.678Z,14.38
2023-05-09T01:51:51.244Z,14.88
2023-05-09T01:53:24.695Z,12.85
2023-05-09T01:54:57.794Z,13.98
2023-05-09T01:56:31.778Z,12.95
2023-05-09T01:58:06.194Z,13.48
2023-05-09T01:59:41.991Z,14.02
2023-05-09T02:02:46.777Z,13.45
2023-05-09T02:04:20.882Z,13.68
2023-05-09T02:05:54.612Z,13.55
2023-05-09T02:07:29.330Z,15.25
2023-05-09T02:09:02.088Z,14.25
2023-05-09T02:10:35.356Z,13.10
2023-05-09T02:12:07.147Z,13.85
2023-05-09T02:13:39.162Z,14.13
2023-05-09T02:15:11.185Z,13.70
2023-05-09T02:16:45.806Z,14.07
2023-05-09T02:18:17.415Z,14.23
2023-05-09T02:19:49.001Z,13.35
2023-05-09T02:21:20.632Z,11.48
2023-05-09T02:22:52.351Z,13.52
2023-05-09T02:24:24.634Z,12.32
2023-05-09T02:25:56.624Z,13.13
2023-05-09T02:27:28.500Z,12.48
2023-05-09T02:29:02.836Z,13.65
2023-05-09T02:30:41.994Z,12.52
2023-05-09T02:32:20.782Z,12.60
2023-05-09T02:33:53.445Z,12.55
2023-05-09T02:35:27.402Z,13.07
2023-05-09T02:36:59.494Z,12.38
2023-05-09T02:38:32.633Z,12.80
2023-05-09T02:40:07.656Z,11.63
2023-05-09T02:41:39.406Z,12.27
2023-05-09T02:43:11.181Z,13.60
2023-05-09T02:44:42.762Z,11.98
2023-05-09T02:46:14.410Z,11.95
2023-05-09T02:47:46.093Z,10.88
2023-05-09T02:49:31.447Z,11.63
2023-05-09T02:51:04.853Z,11.02
2023-05-09T02:52:36.504Z,11.88
2023-05-09T02:54:08.936Z,12.48
2023-05-09T02:55:40.527Z,12.27
2023-05-09T02:57:12.188Z,12.45
2023-05-09T02:58:44.297Z,14.25
2023-05-09T03:00:18.005Z,13.27
2023-05-09T03:01:49.681Z,13.85
2023-05-09T03:03:23.354Z,12.25
2023-05-09T03:04:56.567Z,13.05
2023-05-09T03:06:28.250Z,13.60
2023-05-09T03:07:59.866Z,12.32
2023-05-09T03:09:31.618Z,11.90
2023-05-09T03:11:03.252Z,12.68
2023-05-09T03:12:35.300Z,13.05
2023-05-09T03:14:08.456Z,13.90
2023-05-09T03:15:40.085Z,15.20
2023-05-09T03:17:12.946Z,13.07
2023-05-09T03:18:44.656Z,13.93
2023-05-09T03:20:16.390Z,11.93
2023-05-09T03:21:48.079Z,12.68
2023-05-09T03:23:20.011Z,12.85
2023-05-09T03:24:51.711Z,14.52
2023-05-09T03:26:23.473Z,12.70
2023-05-09T03:27:55.046Z,13.45
2023-05-09T03:29:27.647Z,12.88
2023-05-09T03:30:59.255Z,13.13
2023-05-09T03:32:32.420Z,13.45
2023-05-09T03:34:04.010Z,13.70
2023-05-09T03:35:35.652Z,13.35
2023-05-09T03:37:07.473Z,12.52
2023-05-09T03:38:43.410Z,12.30
2023-05-09T03:40:15.333Z,13.27
2023-05-09T03:41:59.130Z,12.73
2023-05-09T03:43:30.813Z,13.55
2023-05-09T03:45:02.384Z,12.63
2023-05-09T03:46:34.107Z,12.73
2023-05-09T03:48:08.560Z,13.10
2023-05-09T03:49:42.808Z,11.68
2023-05-09T03:51:16.431Z,12.77
2023-05-09T03:52:50.554Z,11.50
2023-05-09T03:54:22.356Z,12.40
2023-05-09T03:55:55.767Z,11.13
2023-05-09T03:57:27.980Z,10.32
2023-05-09T03:59:01.585Z,11.25
2023-05-09T04:00:33.636Z,10.57
2023-05-09T04:02:13.123Z,9.93
2023-05-09T04:03:45.053Z,9.57
2023-05-09T04:05:19.353Z,10.43
2023-05-09T04:06:51.750Z,10.85
2023-05-09T04:08:23.692Z,10.18
2023-05-09T04:09:58.587Z,9.52
2023-05-09T04:11:30.619Z,10.00
2023-05-09T04:13:03.413Z,10.02
2023-05-09T04:14:35.506Z,10.07
2023-05-09T04:16:07.303Z,9.88
2023-05-09T04:17:39.547Z,9.25
2023-05-09T04:19:11.237Z,11.27
2023-05-09T04:20:43.191Z,11.05
2023-05-09T04:22:15.236Z,10.25
2023-05-09T04:23:46.917Z,9.32
2023-05-09T04:25:20.207Z,9.90
2023-05-09T04:26:52.756Z,9.93
2023-05-09T04:28:27.312Z,9.40
2023-05-09T04:30:00.291Z,9.63
2023-05-09T04:31:32.039Z,11.40
2023-05-09T04:33:04.452Z,9.00
2023-05-09T04:34:36.056Z,9.40
2023-05-09T04:36:14.012Z,10.07
2023-05-09T04:37:45.691Z,10.20
2023-05-09T04:39:17.667Z,9.85
2023-05-09T04:40:58.610Z,10.35
2023-05-09T04:42:33.386Z,9.30
2023-05-09T04:44:05.446Z,10.32
2023-05-09T04:45:37.104Z,10.93
2023-05-09T04:47:08.750Z,10.60
2023-05-09T04:48:40.609Z,10.15
2023-05-09T04:50:12.400Z,9.15
2023-05-09T04:51:44.018Z,11.48
2023-05-09T04:53:15.632Z,10.15
2023-05-09T04:54:47.400Z,9.95
2023-05-09T04:56:22.638Z,9.95
2023-05-09T04:57:54.789Z,10.40
2023-05-09T04:59:26.413Z,10.05
2023-05-09T05:00:58.109Z,9.75
2023-05-09T05:02:30.921Z,11.30
2023-05-09T05:04:02.560Z,10.77
2023-05-09T05:05:37.605Z,11.13
2023-05-09T05:07:10.191Z,11.38
2023-05-09T05:08:41.872Z,11.82
2023-05-09T05:10:13.911Z,10.57
2023-05-09T05:11:58.739Z,12.45
2023-05-09T05:13:32.926Z,12.38
2023-05-09T05:15:06.824Z,13.35
2023-05-09T05:16:39.185Z,12.43
2023-05-09T05:18:11.208Z,14.77
2023-05-09T05:19:43.505Z,15.73
2023-05-09T05:21:16.407Z,13.10
2023-05-09T05:22:48.901Z,11.98
2023-05-09T05:24:20.770Z,11.95
2023-05-09T05:25:52.786Z,14.20
2023-05-09T05:27:24.586Z,11.98
2023-05-09T05:28:57.217Z,12.50
2023-05-09T05:30:32.124Z,13.52
2023-05-09T05:32:05.971Z,13.23
2023-05-09T05:33:37.727Z,12.30
2023-05-09T05:35:13.410Z,12.60
2023-05-09T05:38:17.362Z,14.35
2023-05-09T05:41:24.946Z,12.25
2023-05-09T05:42:57.093Z,12.63
2023-05-09T05:44:29.357Z,11.40
2023-05-09T05:46:01.235Z,13.63
2023-05-09T05:47:35.677Z,12.80
2023-05-09T05:49:08.042Z,13.77
2023-05-09T05:50:39.902Z,12.38
2023-05-09T05:52:11.548Z,13.55
2023-05-09T05:53:43.215Z,13.75
2023-05-09T05:55:15.066Z,13.88
2023-05-09T05:56:47.026Z,15.02
2023-05-09T05:58:18.670Z,12.52
2023-05-09T05:59:51.225Z,13.98
2023-05-09T06:01:22.865Z,13.27
2023-05-09T06:02:55.160Z,13.80
2023-05-09T06:04:32.539Z,15.90
2023-05-09T06:06:04.680Z,13.20
2023-05-09T06:07:36.800Z,14.27
2023-05-09T06:09:08.672Z,13.45
2023-05-09T06:10:40.788Z,13.00
2023-05-09T06:12:16.426Z,13.07
2023-05-09T06:13:47.978Z,15.18
2023-05-09T06:15:19.543Z,12.80
2023-05-09T06:16:54.345Z,12.13
2023-05-09T06:18:26.178Z,12.27
2023-05-09T06:19:58.822Z,12.95
2023-05-09T06:21:30.536Z,11.55
2023-05-09T06:23:02.142Z,12.65
2023-05-09T06:24:36.299Z,12.13
2023-05-09T06:26:08.500Z,14.65
2023-05-09T06:27:40.745Z,12.07
2023-05-09T06:29:14.255Z,12.35
2023-05-09T06:30:45.978Z,13.05
2023-05-09T06:32:18.772Z,12.38
2023-05-09T06:33:50.946Z,12.07
2023-05-09T06:35:23.044Z,12.98
2023-05-09T06:36:54.926Z,11.90
2023-05-09T06:38:26.942Z,12.85
2023-05-09T06:39:58.768Z,13.65
2023-05-09T06:41:30.988Z,12.25
2023-05-09T06:43:02.782Z,12.68
2023-05-09T06:44:34.873Z,12.52
2023-05-09T06:46:07.444Z,12.80
2023-05-09T06:47:39.349Z,12.65
2023-05-09T06:49:11.100Z,12.13
2023-05-09T06:50:42.769Z,11.45
2023-05-09T06:52:15.783Z,12.32
2023-05-09T06:53:48.017Z,12.43
2023-05-09T06:55:19.688Z,12.63
2023-05-09T06:56:51.314Z,13.40
2023-05-09T06:58:23.265Z,12.40
2023-05-09T06:59:54.827Z,12.45
2023-05-09T07:01:27.035Z,12.57
2023-05-09T07:02:58.821Z,12.98
2023-05-09T07:04:30.519Z,12.30
2023-05-09T07:06:02.034Z,13.23
2023-05-09T07:07:33.559Z,14.02
2023-05-09T07:09:05.071Z,11.95
2023-05-09T07:10:36.760Z,13.52
2023-05-09T07:12:08.541Z,12.82
2023-05-09T07:13:40.127Z,13.23
2023-05-09T07:15:11.977Z,13.32
2023-05-09T07:16:43.768Z,12.52
2023-05-09T07:18:15.402Z,13.82
2023-05-09T07:19:46.963Z,13.65
2023-05-09T07:21:18.516Z,12.35
2023-05-09T07:22:50.149Z,16.52
2023-05-09T07:24:21.720Z,14.00
2023-05-09T07:25:59.595Z,14.35
2023-05-09T07:27:31.171Z,14.93
2023-05-09T07:29:02.965Z,12.25
2023-05-09T07:30:34.570Z,13.98
2023-05-09T07:32:06.284Z,14.35
2023-05-09T07:33:38.164Z,12.95
2023-05-09T07:35:09.859Z,14.55
2023-05-09T07:36:41.413Z,13.55
2023-05-09T07:38:13.279Z,14.02
2023-05-09T07:39:44.945Z,14.30
2023-05-09T07:41:16.735Z,13.40
2023-05-09T07:42:50.011Z,14.55
2023-05-09T07:44:22.335Z,15.77
2023-05-09T07:45:54.075Z,13.88
2023-05-09T07:47:25.986Z,17.05
2023-05-09T07:48:57.607Z,14.13
2023-05-09T07:50:29.658Z,14.50
2023-05-09T07:52:02.065Z,14.20
2023-05-09T07:53:33.911Z,12.77
2023-05-09T07:55:06.868Z,13.20
2023-05-09T07:56:38.590Z,13.40
2023-05-09T07:58:10.351Z,14.40
2023-05-09T07:59:42.486Z,13.13
2023-05-09T08:01:14.149Z,13.75
2023-05-09T08:02:45.871Z,12.50
2023-05-09T08:04:17.585Z,13.48
2023-05-09T08:05:49.516Z,13.70
2023-05-09T08:07:21.224Z,12.38
2023-05-09T08:08:52.826Z,12.70
2023-05-09T08:10:24.983Z,12.77
2023-05-09T08:11:56.577Z,12.52
2023-05-09T08:13:28.282Z,12.90
2023-05-09T08:14:59.872Z,12.57
2023-05-09T08:16:31.538Z,12.25
2023-05-09T08:18:03.255Z,12.45
2023-05-09T08:19:34.880Z,11.38
2023-05-09T08:21:06.730Z,11.18
2023-05-09T08:22:39.235Z,11.60
2023-05-09T08:24:10.787Z,11.30
2023-05-09T08:25:43.093Z,11.70
2023-05-09T08:27:15.483Z,11.15
2023-05-09T08:28:47.109Z,10.52
2023-05-09T08:30:18.836Z,11.30
2023-05-09T08:31:51.277Z,12.07
2023-05-09T08:33:23.527Z,12.02
2023-05-09T08:34:55.196Z,10.90
2023-05-09T08:36:26.766Z,9.30
2023-05-09T08:37:58.346Z,11.40
2023-05-09T08:39:30.704Z,9.50
2023-05-09T08:41:02.922Z,11.02
2023-05-09T08:42:37.424Z,11.85
2023-05-09T08:44:09.268Z,10.60
2023-05-09T08:45:52.355Z,11.23
2023-05-09T08:47:24.835Z,9.27
2023-05-09T08:48:57.349Z,11.73
2023-05-09T08:50:29.201Z,10.93
2023-05-09T08:52:01.529Z,11.60
2023-05-09T08:53:34.081Z,14.15
2023-05-09T08:55:06.307Z,12.20
2023-05-09T08:56:38.157Z,13.25
2023-05-09T08:58:09.764Z,12.15
2023-05-09T08:59:42.468Z,10.63
2023-05-09T09:01:14.457Z,12.75
2023-05-09T09:02:46.595Z,12.02
2023-05-09T09:04:18.288Z,12.52
2023-05-09T09:05:52.772Z,11.25
2023-05-09T09:07:27.669Z,11.70
2023-05-09T09:09:01.039Z,9.75
2023-05-09T09:10:33.529Z,11.70
2023-05-09T09:12:09.859Z,10.23
2023-05-09T09:13:43.709Z,10.25
2023-05-09T09:15:20.133Z,10.57
2023-05-09T09:16:55.182Z,10.23
2023-05-09T09:18:30.536Z,8.95
2023-05-09T09:20:05.667Z,9.30
2023-05-09T09:21:38.611Z,8.85
2023-05-09T09:23:13.087Z,8.23
2023-05-09T09:24:45.288Z,8.30
2023-05-09T09:26:16.966Z,8.38
2023-05-09T09:27:48.567Z,8.00
2023-05-09T09:29:21.070Z,6.60
2023-05-09T09:30:52.732Z,7.68
2023-05-09T09:32:33.642Z,7.90
2023-05-09T09:34:05.241Z,7.22
2023-05-09T09:35:40.369Z,6.30
2023-05-09T09:37:23.212Z,5.65
2023-05-09T09:39:02.358Z,5.55
2023-05-09T09:40:33.979Z,6.35
2023-05-09T09:42:12.192Z,6.55
2023-05-09T09:43:46.769Z,5.93
2023-05-09T09:45:25.284Z,7.32
2023-05-09T09:46:57.057Z,5.38
2023-05-09T09:48:34.012Z,5.68
2023-05-09T09:50:13.152Z,6.28
2023-05-09T09:51:45.396Z,5.57
2023-05-09T09:53:20.301Z,5.20
2023-05-09T09:54:56.564Z,5.22
2023-05-09T09:56:46.162Z,5.20
2023-05-09T09:58:25.158Z,5.57
2023-05-09T10:00:00.836Z,4.88
2023-05-09T10:01:32.469Z,4.50
2023-05-09T10:03:04.313Z,4.32
2023-05-09T10:04:41.799Z,4.50
2023-05-09T10:06:15.217Z,4.72
2023-05-09T10:07:50.400Z,4.55
2023-05-09T10:09:23.771Z,4.50
2023-05-09T10:10:55.524Z,4.88
2023-05-09T10:12:27.396Z,5.13
2023-05-09T10:13:59.020Z,6.20
2023-05-09T10:15:41.392Z,5.70
2023-05-09T10:17:19.853Z,5.70
2023-05-09T10:18:52.703Z,5.18
2023-05-09T10:20:25.522Z,6.28
2023-05-09T10:22:05.584Z,5.32
2023-05-09T10:23:38.386Z,4.70
2023-05-09T10:25:20.609Z,4.82
2023-05-09T10:26:56.153Z,4.38
2023-05-09T10:28:31.797Z,4.38
2023-05-09T10:30:15.515Z,4.53
2023-05-09T10:31:48.746Z,5.22
2023-05-09T10:33:27.803Z,4.38
2023-05-09T10:35:05.156Z,4.53
2023-05-09T10:36:37.616Z,4.68
2023-05-09T10:38:12.441Z,4.05
2023-05-09T10:39:44.283Z,3.67
2023-05-09T10:41:21.865Z,3.97
2023-05-09T10:42:53.901Z,4.22
2023-05-09T10:44:27.071Z,4.25
2023-05-09T10:45:59.192Z,4.28
2023-05-09T10:47:33.223Z,4.13
2023-05-09T10:49:05.112Z,4.22
2023-05-09T10:50:40.248Z,4.03
2023-05-09T10:52:12.397Z,3.50
2023-05-09T10:53:44.198Z,3.95
2023-05-09T10:55:16.111Z,4.25
2023-05-09T10:56:47.793Z,3.80
2023-05-09T10:58:29.893Z,3.78
2023-05-09T11:00:01.562Z,3.83
2023-05-09T11:01:35.379Z,3.50
2023-05-09T11:03:10.545Z,3.40
2023-05-09T11:04:42.337Z,3.55
2023-05-09T11:06:40.835Z,4.03
2023-05-09T11:08:26.723Z,3.58
2023-05-09T11:10:09.192Z,4.35
2023-05-09T11:11:51.505Z,4.07
2023-05-09T11:13:25.694Z,4.35
2023-05-09T11:15:06.348Z,4.35
2023-05-09T11:16:57.763Z,4.80
2023-05-09T11:18:30.732Z,3.80
2023-05-09T11:20:08.781Z,3.97
2023-05-09T11:22:00.885Z,3.38
2023-05-09T11:23:33.021Z,4.15
2023-05-09T11:25:05.813Z,4.28
2023-05-09T11:26:37.458Z,4.18
2023-05-09T11:28:09.275Z,4.03
2023-05-09T11:29:46.515Z,4.10
2023-05-09T11:31:19.050Z,3.85
2023-05-09T11:32:51.798Z,4.35
2023-05-09T11:34:24.109Z,4.07
2023-05-09T11:36:29.556Z,4.45
2023-05-09T11:38:02.059Z,4.78
2023-05-09T11:39:33.639Z,4.53
2023-05-09T11:41:05.955Z,4.15
2023-05-09T11:42:43.647Z,4.43
2023-05-09T11:44:17.072Z,5.15
2023-05-09T11:45:49.023Z,4.47
2023-05-09T11:47:21.785Z,4.43
2023-05-09T11:48:53.744Z,4.70
2023-05-09T11:50:25.625Z,5.20
2023-05-09T11:51:59.740Z,6.10
2023-05-09T11:53:32.365Z,5.43
2023-05-09T11:55:08.960Z,5.03
2023-05-09T11:56:42.038Z,4.18
2023-05-09T11:58:13.890Z,4.78
2023-05-09T11:59:46.454Z,4.32
2023-05-09T12:01:19.337Z,4.72
2023-05-09T12:02:53.434Z,5.35
2023-05-09T12:04:25.421Z,4.55
2023-05-09T12:05:57.156Z,5.10
2023-05-09T12:07:29.009Z,5.57
2023-05-09T12:09:02.285Z,4.03
2023-05-09T12:10:40.946Z,2.70
2023-05-09T12:12:14.535Z,2.78
2023-05-09T12:13:49.121Z,3.45
2023-05-09T12:15:21.793Z,2.88
2023-05-09T12:16:53.750Z,2.67
2023-05-09T12:18:25.334Z,2.03
2023-05-09T12:19:59.899Z,2.10
2023-05-09T12:21:31.595Z,2.10
2023-05-09T12:23:03.485Z,2.35
2023-05-09T12:24:36.874Z,1.92
2023-05-09T12:26:08.598Z,2.17
2023-05-09T12:27:41.758Z,2.35
2023-05-09T12:29:13.716Z,1.65
2023-05-09T12:30:45.707Z,2.03
2023-05-09T12:32:18.601Z,2.15
2023-05-09T12:33:50.391Z,1.95
2023-05-09T12:35:23.543Z,1.75
2023-05-09T12:36:55.137Z,1.85
2023-05-09T12:38:27.078Z,1.55
2023-05-09T12:40:12.604Z,1.98
2023-05-09T12:41:57.385Z,1.85
2023-05-09T12:43:34.065Z,1.63
2023-05-09T12:45:08.743Z,1.60
2023-05-09T12:46:40.467Z,1.50
2023-05-09T12:48:13.641Z,1.67
2023-05-09T12:49:50.004Z,1.77
2023-05-09T12:51:22.493Z,1.83
2023-05-09T12:53:02.655Z,1.85
2023-05-09T12:54:35.398Z,2.10
2023-05-09T12:56:34.157Z,2.40
2023-05-09T12:58:05.804Z,1.95
2023-05-09T12:59:37.461Z,2.40
2023-05-09T13:01:09.531Z,1.85
2023-05-09T13:02:42.176Z,2.38
2023-05-09T13:04:14.028Z,2.08
2023-05-09T13:05:54.512Z,1.70
2023-05-09T13:07:26.359Z,2.13
2023-05-09T13:09:02.793Z,2.28
2023-05-09T13:10:34.719Z,2.03
2023-05-09T13:12:09.981Z,2.28
2023-05-09T13:13:42.495Z,2.20
2023-05-09T13:15:19.940Z,3.50
2023-05-09T13:16:51.743Z,2.53
2023-05-09T13:18:24.446Z,3.53
2023-05-09T13:19:56.561Z,3.05
2023-05-09T13:21:28.159Z,2.40
2023-05-09T13:22:59.926Z,3.13
2023-05-09T13:24:31.612Z,2.97
2023-05-09T13:26:03.619Z,4.00
2023-05-09T13:27:35.792Z,3.40
2023-05-09T13:29:07.878Z,3.85
2023-05-09T13:30:39.740Z,3.22
2023-05-09T13:32:11.436Z,3.22
2023-05-09T13:33:42.997Z,3.22
2023-05-09T13:35:15.346Z,4.32
2023-05-09T13:36:46.901Z,3.60
2023-05-09T13:38:18.545Z,3.67
2023-05-09T13:39:50.227Z,3.58
2023-05-09T13:41:23.934Z,3.25
2023-05-09T13:42:55.902Z,3.40
2023-05-09T13:44:28.926Z,2.80
2023-05-09T13:46:00.810Z,3.17
2023-05-09T13:47:32.718Z,3.38
2023-05-09T13:49:04.495Z,3.53
2023-05-09T13:50:36.261Z,3.13
2023-05-09T13:52:09.011Z,3.65
2023-05-09T13:53:40.860Z,3.50
2023-05-09T13:55:12.522Z,3.75
2023-05-09T13:56:44.289Z,4.18
2023-05-09T13:58:16.056Z,3.25
2023-05-09T13:59:47.698Z,3.35
2023-05-09T14:01:19.443Z,2.90
2023-05-09T14:02:51.436Z,3.65
2023-05-09T14:04:23.160Z,3.15
2023-05-09T14:05:54.760Z,3.10
2023-05-09T14:07:26.522Z,3.25
2023-05-09T14:08:58.200Z,3.45
2023-05-09T14:10:29.803Z,3.35
2023-05-09T14:12:01.596Z,2.92
2023-05-09T14:13:33.300Z,3.03
2023-05-09T14:15:07.102Z,3.13
2023-05-09T14:16:38.869Z,2.88
2023-05-09T14:18:11.441Z,3.00
2023-05-09T14:19:44.083Z,3.00
2023-05-09T14:21:15.684Z,3.33
2023-05-09T14:22:48.216Z,2.78
2023-05-09T14:24:19.781Z,2.42
2023-05-09T14:25:51.768Z,3.25
2023-05-09T14:27:24.115Z,2.88
2023-05-09T14:28:55.756Z,2.85
2023-05-09T14:30:27.981Z,3.03
2023-05-09T14:32:00.118Z,3.10
2023-05-09T14:33:32.829Z,3.03
2023-05-09T14:35:04.777Z,3.33
2023-05-09T14:36:37.438Z,3.33
2023-05-09T14:38:09.878Z,3.30
2023-05-09T14:39:42.567Z,2.97
2023-05-09T14:41:15.254Z,2.72
2023-05-09T14:42:47.605Z,2.25
2023-05-09T14:44:19.757Z,2.92
2023-05-09T14:45:51.736Z,3.30
2023-05-09T14:47:23.315Z,3.33
2023-05-09T14:48:57.429Z,2.88
2023-05-09T14:50:29.545Z,2.60
2023-05-09T14:52:01.241Z,2.65
2023-05-09T14:53:35.854Z,2.60
2023-05-09T14:55:08.239Z,2.90
2023-05-09T14:56:40.339Z,3.08
2023-05-09T14:58:13.904Z,2.83
2023-05-09T14:59:45.664Z,2.40
2023-05-09T15:01:17.325Z,3.10
2023-05-09T15:02:49.635Z,2.88
2023-05-09T15:04:21.460Z,2.90
2023-05-09T15:05:53.397Z,2.70
2023-05-09T15:07:25.003Z,2.97
2023-05-09T15:08:56.750Z,3.08
2023-05-09T15:10:28.492Z,3.20
2023-05-09T15:12:00.259Z,2.83
2023-05-09T15:13:32.412Z,2.92
2023-05-09T15:15:15.327Z,2.97
2023-05-09T15:16:47.477Z,2.65
2023-05-09T15:18:20.169Z,2.75
2023-05-09T15:19:52.178Z,3.10
2023-05-09T15:21:24.849Z,3.55
2023-05-09T15:22:56.687Z,3.50
2023-05-09T15:24:28.431Z,3.22
2023-05-09T15:26:00.379Z,3.17
2023-05-09T15:27:32.147Z,2.90
2023-05-09T15:29:03.891Z,3.28
2023-05-09T15:30:38.342Z,2.60
2023-05-09T15:32:10.251Z,3.10
2023-05-09T15:33:42.037Z,3.70
2023-05-09T15:35:14.114Z,4.28
2023-05-09T15:36:46.279Z,3.60
2023-05-09T15:38:19.349Z,3.20
2023-05-09T15:39:51.313Z,3.20
2023-05-09T15:41:23.935Z,3.08
2023-05-09T15:42:56.036Z,3.53
2023-05-09T15:44:27.920Z,3.50
2023-05-09T15:45:59.664Z,3.42
2023-05-09T15:47:31.447Z,3.88
2023-05-09T15:49:03.322Z,3.53
2023-05-09T15:50:35.090Z,2.97
2023-05-09T15:52:07.976Z,3.25
2023-05-09T15:53:39.965Z,3.38
2023-05-09T15:55:13.078Z,3.53
2023-05-09T15:56:44.933Z,3.30
2023-05-09T15:58:17.337Z,3.78
2023-05-09T15:59:49.277Z,3.40
2023-05-09T16:01:21.277Z,3.45
2023-05-09T16:02:53.180Z,3.60
2023-05-09T16:04:24.871Z,3.30
2023-05-09T16:05:57.658Z,3.40
2023-05-09T16:07:31.106Z,3.70
2023-05-09T16:09:04.716Z,3.25
2023-05-09T16:10:36.671Z,3.03
2023-05-09T16:12:09.350Z,3.28
2023-05-09T16:13:41.082Z,3.03
2023-05-09T16:15:12.880Z,3.63
2023-05-09T16:16:44.738Z,3.38
2023-05-09T16:18:16.563Z,3.60
2023-05-09T16:19:48.435Z,3.42
2023-05-09T16:21:21.805Z,3.28
2023-05-09T16:22:53.731Z,3.45
2023-05-09T16:24:25.695Z,3.45
2023-05-09T16:25:57.569Z,3.65
2023-05-09T16:27:29.513Z,3.15
2023-05-09T16:29:01.421Z,3.47
2023-05-09T16:30:33.169Z,3.03
2023-05-09T16:32:05.247Z,3.67
2023-05-09T16:33:37.177Z,3.97
2023-05-09T16:35:09.245Z,3.78
2023-05-09T16:36:41.377Z,4.13
2023-05-09T16:38:13.732Z,3.67
2023-05-09T16:39:46.189Z,4.10
2023-05-09T16:41:17.916Z,3.70
2023-05-09T16:42:49.685Z,4.43
2023-05-09T16:44:21.897Z,4.30
2023-05-09T16:45:53.652Z,4.40
2023-05-09T16:47:25.702Z,4.03
2023-05-09T16:48:58.181Z,4.40
2023-05-09T16:50:30.079Z,4.15
2023-05-09T16:52:01.710Z,4.07
2023-05-09T16:53:33.432Z,3.75
2023-05-09T16:55:06.018Z,5.90
2023-05-09T16:56:37.980Z,3.70
2023-05-09T16:58:09.981Z,2.85
2023-05-09T16:59:41.950Z,3.28
2023-05-09T17:01:13.728Z,3.45
2023-05-09T17:02:45.663Z,3.67
2023-05-09T17:04:17.418Z,3.15
2023-05-09T17:05:49.202Z,3.13
2023-05-09T17:07:21.115Z,2.53
2023-05-09T17:08:53.420Z,2.55
2023-05-09T17:10:26.493Z,3.30
2023-05-09T17:11:58.933Z,4.20
2023-05-09T17:13:31.265Z,3.80
2023-05-09T17:15:03.433Z,3.85
2023-05-09T17:16:37.344Z,3.55
2023-05-09T17:18:09.870Z,3.25
2023-05-09T17:19:41.752Z,3.50
2023-05-09T17:21:16.999Z,2.95
2023-05-09T17:22:48.695Z,2.92
2023-05-09T17:24:20.361Z,2.70
2023-05-09T17:25:52.310Z,2.63
2023-05-09T17:27:24.299Z,2.90
2023-05-09T17:28:56.068Z,2.80
2023-05-09T17:30:27.858Z,2.63
2023-05-09T17:32:02.473Z,2.72
2023-05-09T17:33:34.390Z,2.92
2023-05-09T17:35:06.812Z,2.70
2023-05-09T17:36:38.498Z,2.55
2023-05-09T17:38:10.100Z,2.60
2023-05-09T17:39:42.649Z,3.15
2023-05-09T17:41:14.430Z,2.30
2023-05-09T17:42:46.088Z,2.60
2023-05-09T17:44:18.963Z,2.42
2023-05-09T17:45:52.412Z,2.50
2023-05-09T17:47:24.151Z,2.60
2023-05-09T17:48:56.635Z,2.85
2023-05-09T17:50:28.605Z,3.05
2023-05-09T17:52:00.472Z,3.40
2023-05-09T17:53:32.432Z,2.65
2023-05-09T17:55:04.454Z,2.40
2023-05-09T17:56:36.531Z,3.17
2023-05-09T17:58:08.524Z,3.50
2023-05-09T17:59:41.473Z,2.80
2023-05-09T18:01:13.528Z,2.78
2023-05-09T18:02:45.588Z,2.65
2023-05-09T18:04:17.282Z,3.00
2023-05-09T18:05:49.007Z,2.80
2023-05-09T18:07:21.000Z,3.05
2023-05-09T18:08:52.765Z,2.90
2023-05-09T18:10:24.422Z,2.97
2023-05-09T18:11:57.921Z,2.50
2023-05-09T18:13:29.781Z,2.70
2023-05-09T18:15:02.211Z,2.55
2023-05-09T18:16:34.735Z,2.80
2023-05-09T18:18:12.217Z,2.95
2023-05-09T18:19:45.844Z,3.28
2023-05-09T18:21:17.648Z,2.55
2023-05-09T18:22:49.815Z,2.63
2023-05-09T18:24:22.659Z,2.30
2023-05-09T18:25:55.738Z,2.28
2023-05-09T18:27:27.603Z,2.28
2023-05-09T18:28:59.381Z,2.00
2023-05-09T18:30:31.310Z,2.20
2023-05-09T18:32:03.740Z,2.13
2023-05-09T18:33:39.171Z,2.30
2023-05-09T18:35:11.439Z,2.40
2023-05-09T18:36:43.371Z,2.63
2023-05-09T18:38:15.463Z,2.17
2023-05-09T18:39:48.089Z,2.40
2023-05-09T18:41:20.198Z,3.55
2023-05-09T18:42:52.079Z,2.38
2023-05-09T18:44:24.052Z,2.72
2023-05-09T18:45:57.135Z,2.75
2023-05-09T18:47:29.451Z,2.33
2023-05-09T18:49:04.116Z,3.58
2023-05-09T18:50:36.632Z,2.53
2023-05-09T18:52:09.566Z,2.85
2023-05-09T18:53:43.095Z,2.33
2023-05-09T18:55:16.018Z,2.38
2023-05-09T18:56:48.275Z,2.60
2023-05-09T18:58:21.330Z,2.30
2023-05-09T18:59:54.225Z,3.33
2023-05-09T19:01:27.302Z,2.35
2023-05-09T19:02:59.965Z,2.85
2023-05-09T19:04:32.496Z,2.70
2023-05-09T19:06:05.311Z,2.45
2023-05-09T19:07:39.075Z,2.60
2023-05-09T19:09:12.922Z,3.08
2023-05-09T19:10:46.035Z,3.03
2023-05-09T19:12:19.742Z,2.88
2023-05-09T19:13:54.014Z,3.00
2023-05-09T19:15:27.268Z,3.15
2023-05-09T19:17:01.017Z,3.22
2023-05-09T19:18:34.376Z,2.78
2023-05-09T19:20:09.108Z,2.88
2023-05-09T19:21:42.505Z,2.67
2023-05-09T19:23:15.182Z,3.88
2023-05-09T19:24:48.828Z,3.70
2023-05-09T19:26:22.618Z,3.70
2023-05-09T19:27:54.677Z,3.05
2023-05-09T19:29:27.016Z,2.67
2023-05-09T19:31:00.027Z,3.05
2023-05-09T19:32:32.948Z,3.28
2023-05-09T19:34:06.607Z,4.38
2023-05-09T19:35:39.414Z,3.25
2023-05-09T19:37:12.532Z,3.08
2023-05-09T19:38:46.247Z,3.30
2023-05-09T19:40:20.110Z,2.70
2023-05-09T19:41:52.772Z,2.70
2023-05-09T19:43:24.683Z,3.00
2023-05-09T19:44:57.954Z,2.78
2023-05-09T19:46:30.710Z,3.20
2023-05-09T19:48:03.637Z,3.30
2023-05-09T19:49:35.787Z,3.67
2023-05-09T19:51:12.670Z,3.40
2023-05-09T19:52:46.010Z,3.17
2023-05-09T19:54:18.670Z,3.10
2023-05-09T19:55:51.004Z,3.15
2023-05-09T19:57:23.761Z,3.28
2023-05-09T19:58:57.006Z,4.00
2023-05-09T20:00:30.464Z,3.20
2023-05-09T20:02:03.697Z,3.00
2023-05-09T20:03:37.402Z,3.30
2023-05-09T20:05:10.531Z,3.75
2023-05-09T20:06:43.867Z,3.13
2023-05-09T20:08:17.817Z,3.10
2023-05-09T20:09:51.187Z,3.58
2023-05-09T20:11:23.986Z,3.45
2023-05-09T20:13:00.018Z,2.97
2023-05-09T20:14:39.761Z,3.10
2023-05-09T20:16:13.601Z,3.35
2023-05-09T20:17:48.007Z,3.60
2023-05-09T20:19:21.181Z,3.22
2023-05-09T20:20:55.894Z,3.70
2023-05-09T20:22:29.691Z,3.35
2023-05-09T20:24:02.100Z,3.55
2023-05-09T20:25:36.104Z,3.42
2023-05-09T20:27:08.981Z,5.72
2023-05-09T20:28:42.376Z,4.70
2023-05-09T20:30:17.336Z,4.28